Alma, Alabama
Current Conditions -  °F | °C
As of 11:53 PM on Saturday 20 Dec 2014 (Local Time) from KGZH Reporting Station
Overcast Overcast  
Wind Chill: 52°   Ceiling: 800
Heat Index: 52°   Visibility: 9mi
Dew Point: 49°   Wind: 7mph
Humidity: 89%   Direction: 30°NNE
Pressure: 30.16"   Gusts: NA
Location:  31.46°N, 87.75°W
Report Text: KGZH 210553Z AUTO 03006KT 9SM OVC008 11/09 A3016 RMK AO2 SLP212 T01110094 10111 20106 401110083 53001
Loading
Personal Weather Stations






























Interactive Weather Map New forecast layout! Learn more

10-Day Weather Forecast

Advertisements
Track Severe Weather on mobile